• Join FlightAware (Why Join?)
  • Login
  • US Flag 
03:09PM EDT


 

Airport Tracker/Info


-or-


 

Live Flight TrackerFlight Track Log ✈ HAL380 ✈ 09-May-2013 ✈ PHNL - PHTO / ITO

Flight Track Log - Related Links

Times and Time Zones

All times are in EDT time to prevent confusion due to time zone crossing. See the HAL380 flight status page for this flight to view local times or setup timezone preferences in your user account.

Time Position Orientation Groundspeed Altitude Reporting Facility
EDT Latitude Longitude Course Direction KTS MPH feet Rate Location/Type
11:48PM 21.3000 -157.9000 126° Southeast 160 184 1,100  Level Honolulu Center
11:49PM 21.2500 -157.8667 148° Southeast 230 265 2,000 1,200 Climbing Honolulu Center
11:50PM 21.2000 -157.8167 137° Southeast 280 322 3,600 1,800 Climbing Honolulu Center
11:51PM 21.1833 -157.7333 102° East 290 334 5,700 2,100 Climbing Honolulu Center
11:52PM 21.1778 -157.3665 100° East  Level FlightAware Approximate
11:52PM 21.1833 -157.6500 90° East 290 334 7,900  Level Honolulu Center
11:53PM 21.1486 -157.2275 105° East  Level FlightAware Approximate
11:53PM 21.1667 -157.5667 102° East 300 345 9,800  Level Honolulu Center
11:54PM 21.0979 -157.0968 126° Southeast  Level FlightAware Approximate
11:54PM 21.1667 -157.4667 90° East 330 380 11,100  Level Honolulu Center
11:55PM 21.1500 -157.3667 100° East 370 426 12,100 1,200 Climbing Honolulu Center
11:56PM 21.1333 -157.2500 99° East 390 449 13,600 1,440 Climbing Honolulu Center
11:57PM 21.1333 -157.1500 90° East 390 449 15,100 1,500 Climbing Honolulu Center
11:58PM 21.0667 -157.0333 121° Southeast 400 460 16,700 1,500 Climbing Honolulu Center
11:59PM 21.0167 -156.9167 115° Southeast 410 472 18,100 1,320 Climbing Honolulu Center
12:00AM 20.9500 -156.8167 126° Southeast 420 483 19,400 1,260 Climbing Honolulu Center
12:01AM 20.9000 -156.7000 115° Southeast 420 483 20,700 1,260 Climbing Honolulu Center
12:02AM 20.8500 -156.5833 115° Southeast 430 495 22,000 1,260 Climbing Honolulu Center
12:03AM 20.7833 -156.4667 121° Southeast 440 506 23,300 1,500 Climbing Honolulu Center
12:04AM 20.7333 -156.3500 115° Southeast 440 506 25,000 840 Climbing Honolulu Center
12:05AM 20.6667 -156.2333 121° Southeast 430 495 25,000  Level Honolulu Center
12:06AM 20.6167 -156.1333 118° Southeast 430 495 25,000  Level Honolulu Center
12:07AM 20.5667 -156.0167 115° Southeast 430 495 25,000  Level Honolulu Center
12:08AM 20.5000 -155.9000 121° Southeast 430 495 25,000 -840 Level Honolulu Center
12:09AM 20.4500 -155.7833 115° Southeast 430 495 23,400 -2,220 Descending Honolulu Center
12:10AM 20.4000 -155.7000 123° Southeast 420 483 20,600 -2,520 Descending Honolulu Center
12:11AM 20.3333 -155.5667 118° Southeast 400 460 18,400 -2,400 Descending Honolulu Center
12:12AM 20.2833 -155.4667 118° Southeast 390 449 15,900 -2,580 Descending Honolulu Center
12:13AM 20.2333 -155.3667 118° Southeast 370 426 13,300 -2,220 Descending Honolulu Center
12:14AM 20.2000 -155.2833 113° Southeast 350 403 11,500 -1,560 Descending Honolulu Center
12:15AM 20.1500 -155.2000 123° Southeast 320 368 10,200 -1,440 Descending Honolulu Center
12:16AM 20.1000 -155.1333 129° Southeast 300 345 8,700 -1,560 Descending Honolulu Center
12:17AM 20.0500 -155.0667 129° Southeast 280 322 7,100 -1,620 Descending Honolulu Center